sensor_id;sensor_type;location;lat;lon;timestamp;pressure;altitude;pressure_sealevel;temperature;humidity
81230;BME280;70701;44.452;18.652;2023-06-14T00:01:01;98679.03;;;16.24;72.77
81230;BME280;70701;44.452;18.652;2023-06-14T00:03:29;98667.69;;;16.18;73.56
81230;BME280;70701;44.452;18.652;2023-06-14T00:05:55;98668.84;;;16.11;73.38
81230;BME280;70701;44.452;18.652;2023-06-14T00:08:21;98661.88;;;16.07;72.81
81230;BME280;70701;44.452;18.652;2023-06-14T00:10:48;98674.63;;;15.93;73.53
81230;BME280;70701;44.452;18.652;2023-06-14T00:13:14;98667.09;;;15.84;74.20
81230;BME280;70701;44.452;18.652;2023-06-14T00:15:41;98670.06;;;15.81;74.54
81230;BME280;70701;44.452;18.652;2023-06-14T00:18:07;98672.41;;;15.82;74.25
81230;BME280;70701;44.452;18.652;2023-06-14T00:20:35;98662.41;;;15.81;74.55
81230;BME280;70701;44.452;18.652;2023-06-14T00:23:00;98661.22;;;15.73;74.46
81230;BME280;70701;44.452;18.652;2023-06-14T00:25:26;98670.06;;;15.81;74.23
81230;BME280;70701;44.452;18.652;2023-06-14T00:27:54;98671.31;;;15.80;74.12
81230;BME280;70701;44.452;18.652;2023-06-14T00:30:20;98666.00;;;15.82;73.95
81230;BME280;70701;44.452;18.652;2023-06-14T00:32:46;98668.25;;;15.92;73.12
81230;BME280;70701;44.452;18.652;2023-06-14T00:35:13;98667.09;;;15.84;73.62
81230;BME280;70701;44.452;18.652;2023-06-14T00:37:39;98673.06;;;15.77;73.81
81230;BME280;70701;44.452;18.652;2023-06-14T00:40:05;98664.56;;;15.86;72.81
81230;BME280;70701;44.452;18.652;2023-06-14T00:42:32;98659.59;;;15.81;73.04
81230;BME280;70701;44.452;18.652;2023-06-14T00:44:58;98658.84;;;15.81;72.63
81230;BME280;70701;44.452;18.652;2023-06-14T00:47:24;98660.66;;;15.84;72.36
81230;BME280;70701;44.452;18.652;2023-06-14T00:49:50;98664.94;;;15.79;71.78
81230;BME280;70701;44.452;18.652;2023-06-14T00:52:17;98663.94;;;15.43;73.00
81230;BME280;70701;44.452;18.652;2023-06-14T00:54:43;98656.19;;;15.38;73.08
81230;BME280;70701;44.452;18.652;2023-06-14T00:57:10;98657.00;;;15.29;73.05
81230;BME280;70701;44.452;18.652;2023-06-14T00:59:47;98658.88;;;14.75;75.48
81230;BME280;70701;44.452;18.652;2023-06-14T01:02:13;98658.41;;;14.76;77.00
81230;BME280;70701;44.452;18.652;2023-06-14T01:04:45;98663.97;;;15.19;74.44
81230;BME280;70701;44.452;18.652;2023-06-14T01:13:05;98657.66;;;15.48;73.28
81230;BME280;70701;44.452;18.652;2023-06-14T01:15:32;98655.88;;;15.12;74.29
81230;BME280;70701;44.452;18.652;2023-06-14T01:18:01;98664.06;;;15.01;75.62
81230;BME280;70701;44.452;18.652;2023-06-14T01:20:32;98660.50;;;15.00;75.71
81230;BME280;70701;44.452;18.652;2023-06-14T01:22:58;98659.25;;;14.68;76.50
81230;BME280;70701;44.452;18.652;2023-06-14T01:25:25;98654.91;;;14.57;77.38
81230;BME280;70701;44.452;18.652;2023-06-14T01:28:04;98655.81;;;14.97;76.01
81230;BME280;70701;44.452;18.652;2023-06-14T01:30:40;98645.25;;;15.16;75.37
81230;BME280;70701;44.452;18.652;2023-06-14T01:33:21;98644.06;;;15.32;75.06
81230;BME280;70701;44.452;18.652;2023-06-14T01:35:49;98643.53;;;15.58;73.84
81230;BME280;70701;44.452;18.652;2023-06-14T01:38:17;98645.50;;;15.66;73.38
81230;BME280;70701;44.452;18.652;2023-06-14T01:40:45;98643.19;;;15.65;73.45
81230;BME280;70701;44.452;18.652;2023-06-14T01:43:16;98650.66;;;15.68;73.37
81230;BME280;70701;44.452;18.652;2023-06-14T01:45:43;98641.94;;;15.66;73.18
81230;BME280;70701;44.452;18.652;2023-06-14T01:48:10;98650.25;;;15.60;73.09
81230;BME280;70701;44.452;18.652;2023-06-14T01:50:37;98650.03;;;15.49;73.51
81230;BME280;70701;44.452;18.652;2023-06-14T01:53:06;98650.91;;;15.55;73.41
81230;BME280;70701;44.452;18.652;2023-06-14T01:55:35;98649.44;;;15.21;74.14
81230;BME280;70701;44.452;18.652;2023-06-14T01:58:05;98644.78;;;15.18;74.68
81230;BME280;70701;44.452;18.652;2023-06-14T02:00:31;98641.69;;;15.15;75.34
81230;BME280;70701;44.452;18.652;2023-06-14T02:02:57;98653.38;;;15.14;74.99
81230;BME280;70701;44.452;18.652;2023-06-14T02:05:25;98647.94;;;15.10;75.18
81230;BME280;70701;44.452;18.652;2023-06-14T02:07:52;98646.13;;;15.07;75.11
81230;BME280;70701;44.452;18.652;2023-06-14T02:10:21;98650.81;;;15.01;75.13
81230;BME280;70701;44.452;18.652;2023-06-14T02:12:47;98648.59;;;15.05;74.28
81230;BME280;70701;44.452;18.652;2023-06-14T02:15:13;98645.38;;;14.97;75.00
81230;BME280;70701;44.452;18.652;2023-06-14T02:17:46;98659.88;;;14.96;75.13
81230;BME280;70701;44.452;18.652;2023-06-14T02:20:13;98658.31;;;14.95;75.21
81230;BME280;70701;44.452;18.652;2023-06-14T02:22:39;98653.66;;;14.92;75.45
81230;BME280;70701;44.452;18.652;2023-06-14T02:25:07;98653.97;;;14.94;75.30
81230;BME280;70701;44.452;18.652;2023-06-14T02:27:33;98656.75;;;14.94;74.60
81230;BME280;70701;44.452;18.652;2023-06-14T02:29:59;98663.28;;;15.00;74.63
81230;BME280;70701;44.452;18.652;2023-06-14T02:32:26;98652.72;;;14.95;74.90
81230;BME280;70701;44.452;18.652;2023-06-14T02:34:53;98652.50;;;15.08;75.04
81230;BME280;70701;44.452;18.652;2023-06-14T02:37:19;98646.94;;;14.99;75.15
81230;BME280;70701;44.452;18.652;2023-06-14T02:39:45;98646.59;;;15.06;74.69
81230;BME280;70701;44.452;18.652;2023-06-14T02:42:11;98646.66;;;15.21;74.36
81230;BME280;70701;44.452;18.652;2023-06-14T02:44:37;98646.81;;;15.41;73.72
81230;BME280;70701;44.452;18.652;2023-06-14T02:47:03;98639.81;;;15.36;73.83
81230;BME280;70701;44.452;18.652;2023-06-14T02:49:30;98647.50;;;15.51;73.78
81230;BME280;70701;44.452;18.652;2023-06-14T02:51:56;98649.19;;;15.72;72.50
81230;BME280;70701;44.452;18.652;2023-06-14T02:54:21;98642.78;;;15.57;72.86
81230;BME280;70701;44.452;18.652;2023-06-14T02:56:47;98645.78;;;15.53;73.64
81230;BME280;70701;44.452;18.652;2023-06-14T02:59:13;98634.72;;;15.50;74.09
81230;BME280;70701;44.452;18.652;2023-06-14T03:01:40;98645.03;;;15.29;74.81
81230;BME280;70701;44.452;18.652;2023-06-14T03:04:09;98641.09;;;15.11;75.57
81230;BME280;70701;44.452;18.652;2023-06-14T03:06:37;98645.66;;;15.00;76.43
81230;BME280;70701;44.452;18.652;2023-06-14T03:09:05;98651.47;;;14.96;76.44
81230;BME280;70701;44.452;18.652;2023-06-14T03:11:32;98645.41;;;14.88;76.90
81230;BME280;70701;44.452;18.652;2023-06-14T03:13:58;98653.97;;;14.94;76.67
81230;BME280;70701;44.452;18.652;2023-06-14T03:16:26;98656.97;;;14.90;76.86
81230;BME280;70701;44.452;18.652;2023-06-14T03:18:55;98651.56;;;15.11;76.10
81230;BME280;70701;44.452;18.652;2023-06-14T03:21:23;98659.69;;;15.00;76.40
81230;BME280;70701;44.452;18.652;2023-06-14T03:23:50;98658.78;;;14.93;76.51
81230;BME280;70701;44.452;18.652;2023-06-14T03:26:16;98651.75;;;14.74;77.83
81230;BME280;70701;44.452;18.652;2023-06-14T03:28:47;98656.63;;;14.88;77.48
81230;BME280;70701;44.452;18.652;2023-06-14T03:31:17;98659.75;;;14.90;77.02
81230;BME280;70701;44.452;18.652;2023-06-14T03:33:45;98658.16;;;15.23;76.04
81230;BME280;70701;44.452;18.652;2023-06-14T03:36:12;98657.63;;;15.33;75.84
81230;BME280;70701;44.452;18.652;2023-06-14T03:38:39;98657.06;;;15.44;75.03
81230;BME280;70701;44.452;18.652;2023-06-14T03:41:05;98651.34;;;15.39;75.26
81230;BME280;70701;44.452;18.652;2023-06-14T03:43:31;98654.16;;;15.39;75.65
81230;BME280;70701;44.452;18.652;2023-06-14T03:45:59;98651.56;;;15.26;75.57
81230;BME280;70701;44.452;18.652;2023-06-14T03:48:26;98659.28;;;15.40;75.05
81230;BME280;70701;44.452;18.652;2023-06-14T03:50:53;98666.88;;;15.49;75.03
81230;BME280;70701;44.452;18.652;2023-06-14T03:53:21;98668.34;;;15.59;74.63
81230;BME280;70701;44.452;18.652;2023-06-14T03:55:50;98674.94;;;15.56;74.35
81230;BME280;70701;44.452;18.652;2023-06-14T03:58:19;98672.00;;;15.50;74.77
81230;BME280;70701;44.452;18.652;2023-06-14T04:00:45;98678.41;;;15.51;74.85
81230;BME280;70701;44.452;18.652;2023-06-14T04:03:11;98681.25;;;15.42;75.00
81230;BME280;70701;44.452;18.652;2023-06-14T04:05:39;98674.03;;;15.50;75.40
81230;BME280;70701;44.452;18.652;2023-06-14T04:08:08;98673.25;;;15.49;75.14
81230;BME280;70701;44.452;18.652;2023-06-14T04:10:40;98673.53;;;15.51;74.97
81230;BME280;70701;44.452;18.652;2023-06-14T04:13:06;98677.75;;;15.56;74.67
81230;BME280;70701;44.452;18.652;2023-06-14T04:15:33;98682.84;;;15.58;74.56
81230;BME280;70701;44.452;18.652;2023-06-14T04:18:00;98678.50;;;15.57;74.58
81230;BME280;70701;44.452;18.652;2023-06-14T04:20:26;98685.25;;;15.74;74.76
81230;BME280;70701;44.452;18.652;2023-06-14T04:22:52;98691.38;;;15.87;73.80
81230;BME280;70701;44.452;18.652;2023-06-14T04:25:18;98688.47;;;15.82;74.07
81230;BME280;70701;44.452;18.652;2023-06-14T04:27:44;98685.56;;;15.91;73.80
81230;BME280;70701;44.452;18.652;2023-06-14T04:30:10;98687.25;;;15.98;74.10
81230;BME280;70701;44.452;18.652;2023-06-14T04:32:41;98697.91;;;15.93;74.04
81230;BME280;70701;44.452;18.652;2023-06-14T04:35:09;98695.06;;;15.79;74.40
81230;BME280;70701;44.452;18.652;2023-06-14T04:37:38;98700.19;;;15.95;73.63
81230;BME280;70701;44.452;18.652;2023-06-14T04:40:08;98704.34;;;15.61;75.46
81230;BME280;70701;44.452;18.652;2023-06-14T04:42:35;98700.03;;;15.35;75.62
81230;BME280;70701;44.452;18.652;2023-06-14T04:45:03;98709.63;;;14.86;77.79
81230;BME280;70701;44.452;18.652;2023-06-14T04:47:29;98698.50;;;14.68;78.26
81230;BME280;70701;44.452;18.652;2023-06-14T04:49:57;98706.94;;;14.58;79.07
81230;BME280;70701;44.452;18.652;2023-06-14T04:52:23;98706.56;;;15.08;77.36
81230;BME280;70701;44.452;18.652;2023-06-14T04:54:53;98705.09;;;15.22;77.36
81230;BME280;70701;44.452;18.652;2023-06-14T04:57:21;98704.53;;;15.57;76.11
81230;BME280;70701;44.452;18.652;2023-06-14T04:59:49;98706.69;;;15.86;75.26
81230;BME280;70701;44.452;18.652;2023-06-14T05:02:22;98706.81;;;15.92;74.99
81230;BME280;70701;44.452;18.652;2023-06-14T05:04:48;98704.94;;;15.65;76.07
81230;BME280;70701;44.452;18.652;2023-06-14T05:07:14;98713.81;;;14.91;79.32
81230;BME280;70701;44.452;18.652;2023-06-14T05:09:41;98725.13;;;15.06;79.22
81230;BME280;70701;44.452;18.652;2023-06-14T05:12:07;98718.06;;;15.10;78.92
81230;BME280;70701;44.452;18.652;2023-06-14T05:14:36;98721.94;;;14.89;80.04
81230;BME280;70701;44.452;18.652;2023-06-14T05:17:03;98727.47;;;15.07;79.88
81230;BME280;70701;44.452;18.652;2023-06-14T05:19:29;98728.91;;;15.27;79.14
81230;BME280;70701;44.452;18.652;2023-06-14T05:21:54;98732.31;;;15.31;78.94
81230;BME280;70701;44.452;18.652;2023-06-14T05:24:20;98728.09;;;15.35;78.84
81230;BME280;70701;44.452;18.652;2023-06-14T05:26:46;98736.19;;;15.58;77.90
81230;BME280;70701;44.452;18.652;2023-06-14T05:29:12;98720.19;;;15.73;77.25
81230;BME280;70701;44.452;18.652;2023-06-14T05:31:37;98721.91;;;15.70;77.49
81230;BME280;70701;44.452;18.652;2023-06-14T05:34:03;98720.38;;;15.69;77.63
81230;BME280;70701;44.452;18.652;2023-06-14T05:36:29;98719.41;;;15.72;77.47
81230;BME280;70701;44.452;18.652;2023-06-14T05:38:55;98720.50;;;15.75;78.10
81230;BME280;70701;44.452;18.652;2023-06-14T05:41:27;98711.63;;;15.77;78.19
81230;BME280;70701;44.452;18.652;2023-06-14T05:43:55;98719.41;;;16.11;76.78
81230;BME280;70701;44.452;18.652;2023-06-14T05:46:20;98712.47;;;16.22;76.51
81230;BME280;70701;44.452;18.652;2023-06-14T05:48:50;98721.84;;;16.19;77.27
81230;BME280;70701;44.452;18.652;2023-06-14T05:51:16;98716.34;;;16.24;76.70
81230;BME280;70701;44.452;18.652;2023-06-14T05:53:45;98717.88;;;16.25;76.45
81230;BME280;70701;44.452;18.652;2023-06-14T05:56:11;98717.75;;;16.20;77.00
81230;BME280;70701;44.452;18.652;2023-06-14T05:58:37;98712.34;;;16.01;77.23
81230;BME280;70701;44.452;18.652;2023-06-14T06:01:03;98726.28;;;15.71;78.57
81230;BME280;70701;44.452;18.652;2023-06-14T06:03:29;98722.53;;;15.74;78.55
81230;BME280;70701;44.452;18.652;2023-06-14T06:05:55;98720.44;;;15.84;78.52
81230;BME280;70701;44.452;18.652;2023-06-14T06:08:21;98726.25;;;15.81;78.45
81230;BME280;70701;44.452;18.652;2023-06-14T06:10:46;98727.59;;;15.85;77.80
81230;BME280;70701;44.452;18.652;2023-06-14T06:13:12;98728.63;;;15.73;79.77
81230;BME280;70701;44.452;18.652;2023-06-14T06:15:38;98736.94;;;16.06;78.58
81230;BME280;70701;44.452;18.652;2023-06-14T06:18:04;98736.28;;;16.26;77.47
81230;BME280;70701;44.452;18.652;2023-06-14T06:20:30;98738.72;;;16.63;76.34
81230;BME280;70701;44.452;18.652;2023-06-14T06:23:00;98731.75;;;16.88;74.92
81230;BME280;70701;44.452;18.652;2023-06-14T06:25:27;98728.34;;;16.99;74.20
81230;BME280;70701;44.452;18.652;2023-06-14T06:27:54;98733.66;;;17.12;74.14
81230;BME280;70701;44.452;18.652;2023-06-14T06:30:22;98741.88;;;17.16;74.36
81230;BME280;70701;44.452;18.652;2023-06-14T06:32:47;98740.50;;;17.26;73.62
81230;BME280;70701;44.452;18.652;2023-06-14T06:35:13;98742.81;;;17.27;73.58
81230;BME280;70701;44.452;18.652;2023-06-14T06:37:41;98744.06;;;17.26;73.96
81230;BME280;70701;44.452;18.652;2023-06-14T06:40:07;98740.50;;;17.26;73.63
81230;BME280;70701;44.452;18.652;2023-06-14T06:42:36;98741.47;;;17.23;73.67
81230;BME280;70701;44.452;18.652;2023-06-14T06:45:04;98744.69;;;17.16;73.80
81230;BME280;70701;44.452;18.652;2023-06-14T06:47:30;98754.31;;;17.09;74.60
81230;BME280;70701;44.452;18.652;2023-06-14T06:49:56;98756.28;;;16.88;75.38
81230;BME280;70701;44.452;18.652;2023-06-14T06:52:22;98760.84;;;16.70;76.35
81230;BME280;70701;44.452;18.652;2023-06-14T06:54:47;98758.44;;;16.93;75.02
81230;BME280;70701;44.452;18.652;2023-06-14T06:57:14;98757.16;;;16.94;74.87
81230;BME280;70701;44.452;18.652;2023-06-14T06:59:40;98757.91;;;17.09;74.32
81230;BME280;70701;44.452;18.652;2023-06-14T07:02:06;98758.09;;;17.06;74.54
81230;BME280;70701;44.452;18.652;2023-06-14T07:04:31;98749.00;;;16.96;74.17
81230;BME280;70701;44.452;18.652;2023-06-14T07:06:57;98754.06;;;16.92;74.48
81230;BME280;70701;44.452;18.652;2023-06-14T07:09:23;98752.56;;;16.97;74.24
81230;BME280;70701;44.452;18.652;2023-06-14T07:11:50;98755.47;;;17.02;74.22
81230;BME280;70701;44.452;18.652;2023-06-14T07:14:16;98757.16;;;16.94;75.11
81230;BME280;70701;44.452;18.652;2023-06-14T07:16:41;98755.38;;;17.12;74.59
81230;BME280;70701;44.452;18.652;2023-06-14T07:19:08;98754.13;;;17.13;74.53
81230;BME280;70701;44.452;18.652;2023-06-14T07:21:34;98755.28;;;17.06;74.87
81230;BME280;70701;44.452;18.652;2023-06-14T07:24:00;98761.09;;;17.02;75.18
81230;BME280;70701;44.452;18.652;2023-06-14T07:26:26;98768.09;;;17.07;75.08
81230;BME280;70701;44.452;18.652;2023-06-14T07:28:52;98760.50;;;17.13;74.88
81230;BME280;70701;44.452;18.652;2023-06-14T07:31:18;98755.13;;;17.30;74.41
81230;BME280;70701;44.452;18.652;2023-06-14T07:33:45;98751.50;;;17.44;74.18
81230;BME280;70701;44.452;18.652;2023-06-14T07:36:10;98757.78;;;17.54;73.65
81230;BME280;70701;44.452;18.652;2023-06-14T07:38:36;98757.22;;;17.50;73.96
81230;BME280;70701;44.452;18.652;2023-06-14T07:41:02;98765.09;;;17.46;74.09
81230;BME280;70701;44.452;18.652;2023-06-14T07:43:28;98763.81;;;17.47;74.71
81230;BME280;70701;44.452;18.652;2023-06-14T07:45:53;98759.69;;;17.63;73.74
81230;BME280;70701;44.452;18.652;2023-06-14T07:48:20;98759.69;;;17.83;72.57
81230;BME280;70701;44.452;18.652;2023-06-14T07:50:46;98761.16;;;17.79;72.17
81230;BME280;70701;44.452;18.652;2023-06-14T07:53:12;98763.41;;;17.75;71.52
81230;BME280;70701;44.452;18.652;2023-06-14T07:55:37;98764.25;;;17.81;70.93
81230;BME280;70701;44.452;18.652;2023-06-14T07:58:07;98765.97;;;17.73;71.75
81230;BME280;70701;44.452;18.652;2023-06-14T08:00:33;98769.47;;;17.67;71.65
81230;BME280;70701;44.452;18.652;2023-06-14T08:02:59;98774.34;;;17.67;71.25
81230;BME280;70701;44.452;18.652;2023-06-14T08:05:28;98771.16;;;17.59;71.68
81230;BME280;70701;44.452;18.652;2023-06-14T08:07:55;98776.72;;;17.74;71.19
81230;BME280;70701;44.452;18.652;2023-06-14T08:10:21;98764.16;;;17.90;71.48
81230;BME280;70701;44.452;18.652;2023-06-14T08:12:48;98768.22;;;18.10;71.77
81230;BME280;70701;44.452;18.652;2023-06-14T08:15:16;98768.81;;;17.93;72.70
81230;BME280;70701;44.452;18.652;2023-06-14T08:17:45;98766.06;;;17.99;71.24
81230;BME280;70701;44.452;18.652;2023-06-14T08:20:11;98768.88;;;17.99;70.84
81230;BME280;70701;44.452;18.652;2023-06-14T08:22:38;98771.47;;;18.02;71.18
81230;BME280;70701;44.452;18.652;2023-06-14T08:25:05;98772.72;;;17.81;73.79
81230;BME280;70701;44.452;18.652;2023-06-14T08:27:31;98773.78;;;17.63;75.37
81230;BME280;70701;44.452;18.652;2023-06-14T08:29:57;98779.25;;;17.52;75.97
81230;BME280;70701;44.452;18.652;2023-06-14T08:32:23;98775.09;;;17.67;75.40
81230;BME280;70701;44.452;18.652;2023-06-14T08:34:48;98780.84;;;17.58;75.85
81230;BME280;70701;44.452;18.652;2023-06-14T08:37:14;98787.06;;;17.42;77.06
81230;BME280;70701;44.452;18.652;2023-06-14T08:39:40;98783.69;;;17.23;77.51
81230;BME280;70701;44.452;18.652;2023-06-14T08:42:08;98775.78;;;17.42;76.94
81230;BME280;70701;44.452;18.652;2023-06-14T08:44:34;98790.00;;;17.33;77.75
81230;BME280;70701;44.452;18.652;2023-06-14T08:47:00;98786.06;;;17.45;76.32
81230;BME280;70701;44.452;18.652;2023-06-14T08:49:27;98777.53;;;17.39;76.68
81230;BME280;70701;44.452;18.652;2023-06-14T08:51:58;98778.13;;;17.64;75.21
81230;BME280;70701;44.452;18.652;2023-06-14T08:54:28;98793.75;;;17.65;74.75
81230;BME280;70701;44.452;18.652;2023-06-14T08:56:56;98791.31;;;17.37;75.77
81230;BME280;70701;44.452;18.652;2023-06-14T08:59:26;98798.25;;;17.21;76.83
81230;BME280;70701;44.452;18.652;2023-06-14T09:01:52;98797.28;;;17.24;77.26
81230;BME280;70701;44.452;18.652;2023-06-14T09:04:20;98792.38;;;17.04;78.51
81230;BME280;70701;44.452;18.652;2023-06-14T09:06:47;98788.72;;;17.34;77.82
81230;BME280;70701;44.452;18.652;2023-06-14T09:09:21;98783.84;;;17.34;78.44
81230;BME280;70701;44.452;18.652;2023-06-14T09:11:51;98780.03;;;17.73;76.62
81230;BME280;70701;44.452;18.652;2023-06-14T09:14:23;98773.22;;;18.00;75.24
81230;BME280;70701;44.452;18.652;2023-06-14T09:16:52;98769.94;;;18.27;74.19
81230;BME280;70701;44.452;18.652;2023-06-14T09:19:25;98772.94;;;18.44;73.60
81230;BME280;70701;44.452;18.652;2023-06-14T09:21:52;98773.28;;;18.52;73.32
81230;BME280;70701;44.452;18.652;2023-06-14T09:24:19;98771.31;;;18.12;75.43
81230;BME280;70701;44.452;18.652;2023-06-14T09:26:50;98765.31;;;18.24;75.17
81230;BME280;70701;44.452;18.652;2023-06-14T09:29:19;98775.06;;;18.03;75.93
81230;BME280;70701;44.452;18.652;2023-06-14T09:31:47;98773.00;;;18.03;75.91
81230;BME280;70701;44.452;18.652;2023-06-14T09:34:13;98775.88;;;18.09;75.91
81230;BME280;70701;44.452;18.652;2023-06-14T09:36:39;98772.03;;;18.06;76.14
81230;BME280;70701;44.452;18.652;2023-06-14T09:39:06;98776.81;;;18.21;75.58
81230;BME280;70701;44.452;18.652;2023-06-14T09:41:34;98768.75;;;18.60;74.57
81230;BME280;70701;44.452;18.652;2023-06-14T09:44:02;98757.75;;;18.89;73.51
81230;BME280;70701;44.452;18.652;2023-06-14T09:46:30;98757.47;;;18.60;74.36
81230;BME280;70701;44.452;18.652;2023-06-14T09:49:00;98760.56;;;18.36;75.50
81230;BME280;70701;44.452;18.652;2023-06-14T09:51:28;98759.38;;;18.49;74.82
81230;BME280;70701;44.452;18.652;2023-06-14T09:53:59;98757.25;;;18.38;75.85
81230;BME280;70701;44.452;18.652;2023-06-14T09:56:41;98751.34;;;18.62;74.53
81230;BME280;70701;44.452;18.652;2023-06-14T09:59:12;98750.16;;;18.48;75.06
81230;BME280;70701;44.452;18.652;2023-06-14T10:01:42;98749.78;;;18.61;73.57
81230;BME280;70701;44.452;18.652;2023-06-14T10:04:10;98750.81;;;18.37;74.41
81230;BME280;70701;44.452;18.652;2023-06-14T10:06:39;98747.88;;;18.78;74.64
81230;BME280;70701;44.452;18.652;2023-06-14T10:09:07;98752.97;;;18.74;74.09
81230;BME280;70701;44.452;18.652;2023-06-14T10:11:34;98756.72;;;18.65;74.54
81230;BME280;70701;44.452;18.652;2023-06-14T10:14:02;98750.09;;;18.69;73.53
81230;BME280;70701;44.452;18.652;2023-06-14T10:16:36;98754.56;;;19.07;72.67
81230;BME280;70701;44.452;18.652;2023-06-14T10:22:23;98754.19;;;19.80;69.62
81230;BME280;70701;44.452;18.652;2023-06-14T10:24:51;98747.25;;;19.75;68.82
81230;BME280;70701;44.452;18.652;2023-06-14T10:27:18;98745.25;;;19.93;68.63
81230;BME280;70701;44.452;18.652;2023-06-14T10:32:24;98738.97;;;20.37;66.96
81230;BME280;70701;44.452;18.652;2023-06-14T10:35:08;98727.53;;;19.87;68.19
81230;BME280;70701;44.452;18.652;2023-06-14T10:37:34;98723.84;;;19.69;67.67
81230;BME280;70701;44.452;18.652;2023-06-14T10:40:00;98737.84;;;19.47;69.10
81230;BME280;70701;44.452;18.652;2023-06-14T10:42:33;98733.94;;;19.87;68.89
81230;BME280;70701;44.452;18.652;2023-06-14T10:44:59;98729.31;;;19.84;68.94
81230;BME280;70701;44.452;18.652;2023-06-14T10:47:33;98729.59;;;19.92;68.48
81230;BME280;70701;44.452;18.652;2023-06-14T10:50:10;98729.72;;;20.48;66.63
81230;BME280;70701;44.452;18.652;2023-06-14T10:52:41;98729.28;;;20.72;66.00
81230;BME280;70701;44.452;18.652;2023-06-14T10:55:13;98739.72;;;20.38;66.59
81230;BME280;70701;44.452;18.652;2023-06-14T10:57:51;98736.88;;;20.32;66.81
81230;BME280;70701;44.452;18.652;2023-06-14T11:00:19;98738.78;;;20.92;65.55
81230;BME280;70701;44.452;18.652;2023-06-14T11:10:43;98728.31;;;21.79;61.69
81230;BME280;70701;44.452;18.652;2023-06-14T11:13:09;98725.88;;;22.00;60.55
81230;BME280;70701;44.452;18.652;2023-06-14T11:15:38;98720.31;;;22.30;58.51
81230;BME280;70701;44.452;18.652;2023-06-14T11:18:08;98722.28;;;22.47;58.35
81230;BME280;70701;44.452;18.652;2023-06-14T11:20:37;98719.28;;;22.69;57.99
81230;BME280;70701;44.452;18.652;2023-06-14T11:23:04;98714.13;;;22.68;58.25
81230;BME280;70701;44.452;18.652;2023-06-14T11:25:30;98705.66;;;22.62;58.23
81230;BME280;70701;44.452;18.652;2023-06-14T11:27:56;98705.19;;;22.88;57.15
81230;BME280;70701;44.452;18.652;2023-06-14T11:30:22;98701.91;;;22.79;56.68
81230;BME280;70701;44.452;18.652;2023-06-14T11:32:50;98697.47;;;23.14;55.88
81230;BME280;70701;44.452;18.652;2023-06-14T11:35:18;98696.66;;;23.19;55.18
81230;BME280;70701;44.452;18.652;2023-06-14T11:37:44;98686.25;;;22.97;54.94
81230;BME280;70701;44.452;18.652;2023-06-14T11:40:11;98683.81;;;22.82;55.33
81230;BME280;70701;44.452;18.652;2023-06-14T11:42:40;98680.50;;;23.02;54.76
81230;BME280;70701;44.452;18.652;2023-06-14T11:45:11;98676.59;;;22.81;55.45
81230;BME280;70701;44.452;18.652;2023-06-14T11:47:38;98678.53;;;23.22;54.11
81230;BME280;70701;44.452;18.652;2023-06-14T11:50:06;98676.34;;;23.34;53.76
81230;BME280;70701;44.452;18.652;2023-06-14T11:52:34;98683.06;;;23.55;53.45
81230;BME280;70701;44.452;18.652;2023-06-14T11:55:02;98676.81;;;24.00;52.70
81230;BME280;70701;44.452;18.652;2023-06-14T11:57:30;98674.13;;;24.27;51.91
81230;BME280;70701;44.452;18.652;2023-06-14T11:59:59;98676.56;;;24.36;51.28
81230;BME280;70701;44.452;18.652;2023-06-14T12:02:24;98675.22;;;24.37;50.96
81230;BME280;70701;44.452;18.652;2023-06-14T12:04:53;98675.72;;;24.03;51.68
81230;BME280;70701;44.452;18.652;2023-06-14T12:07:19;98669.72;;;23.69;52.39
81230;BME280;70701;44.452;18.652;2023-06-14T12:12:24;98673.13;;;24.57;50.75
81230;BME280;70701;44.452;18.652;2023-06-14T12:14:57;98666.50;;;24.81;50.76
81230;BME280;70701;44.452;18.652;2023-06-14T12:17:23;98661.59;;;24.49;51.00
81230;BME280;70701;44.452;18.652;2023-06-14T12:19:49;98660.16;;;24.42;50.87
81230;BME280;70701;44.452;18.652;2023-06-14T12:22:16;98653.84;;;24.50;50.26
81230;BME280;70701;44.452;18.652;2023-06-14T12:24:43;98659.69;;;24.57;49.83
81230;BME280;70701;44.452;18.652;2023-06-14T12:27:09;98653.84;;;24.50;50.63
81230;BME280;70701;44.452;18.652;2023-06-14T12:29:37;98651.44;;;24.02;51.95
81230;BME280;70701;44.452;18.652;2023-06-14T12:32:03;98654.22;;;23.89;52.05
81230;BME280;70701;44.452;18.652;2023-06-14T12:34:28;98655.88;;;24.17;51.43
81230;BME280;70701;44.452;18.652;2023-06-14T12:36:54;98644.59;;;23.73;52.17
81230;BME280;70701;44.452;18.652;2023-06-14T12:39:20;98645.75;;;24.21;51.65
81230;BME280;70701;44.452;18.652;2023-06-14T12:41:46;98644.25;;;24.34;51.61
81230;BME280;70701;44.452;18.652;2023-06-14T12:44:13;98646.81;;;24.51;50.99
81230;BME280;70701;44.452;18.652;2023-06-14T12:46:42;98638.84;;;23.98;52.55
81230;BME280;70701;44.452;18.652;2023-06-14T12:49:12;98641.50;;;23.71;53.00
81230;BME280;70701;44.452;18.652;2023-06-14T12:51:39;98642.56;;;23.68;53.41
81230;BME280;70701;44.452;18.652;2023-06-14T12:54:05;98644.06;;;23.31;53.78
81230;BME280;70701;44.452;18.652;2023-06-14T12:56:31;98648.59;;;23.21;54.04
81230;BME280;70701;44.452;18.652;2023-06-14T12:58:58;98640.88;;;23.16;53.76
81230;BME280;70701;44.452;18.652;2023-06-14T13:01:24;98637.19;;;22.96;54.01
81230;BME280;70701;44.452;18.652;2023-06-14T13:03:49;98633.97;;;23.11;53.90
81230;BME280;70701;44.452;18.652;2023-06-14T13:06:17;98629.34;;;23.52;52.26
81230;BME280;70701;44.452;18.652;2023-06-14T13:08:43;98634.56;;;23.47;52.74
81230;BME280;70701;44.452;18.652;2023-06-14T13:11:09;98625.59;;;23.43;51.55
81230;BME280;70701;44.452;18.652;2023-06-14T13:13:35;98638.25;;;23.42;51.21